createdAt,value
2018-08-13T00:00:35.037Z,56.68
2018-08-13T00:01:35.433Z,56.67
2018-08-13T00:02:35.227Z,56.71
2018-08-13T00:03:34.999Z,56.67
2018-08-13T00:04:35.154Z,56.72
2018-08-13T00:05:35.159Z,56.74
2018-08-13T00:06:35.222Z,56.71
2018-08-13T00:07:35.845Z,56.7
2018-08-13T00:08:35.087Z,56.71
2018-08-13T00:09:35.093Z,56.69
2018-08-13T00:10:35.285Z,56.71
2018-08-13T00:11:35.308Z,56.71
2018-08-13T00:12:35.331Z,56.69
2018-08-13T00:13:35.077Z,56.71
2018-08-13T00:14:35.628Z,56.73
2018-08-13T00:15:35.311Z,56.73
2018-08-13T00:16:35.109Z,56.77
2018-08-13T00:17:35.758Z,56.75
2018-08-13T00:18:35.075Z,56.69
2018-08-13T00:19:35.163Z,56.71
2018-08-13T00:20:34.962Z,56.74
2018-08-13T00:21:35.281Z,56.72
2018-08-13T00:22:35.236Z,56.71
2018-08-13T00:23:35.140Z,56.71
2018-08-13T00:24:35.278Z,56.71
2018-08-13T00:25:35.261Z,56.73
2018-08-13T00:26:35.041Z,56.7
2018-08-13T00:27:35.136Z,56.74
2018-08-13T00:28:35.285Z,56.71
2018-08-13T00:29:35.045Z,56.71
2018-08-13T00:30:35.258Z,56.73
2018-08-13T00:31:35.309Z,56.73
2018-08-13T00:32:35.242Z,56.75
2018-08-13T00:33:35.019Z,56.73
2018-08-13T00:34:35.246Z,56.73
2018-08-13T00:35:35.321Z,56.75
2018-08-13T00:36:35.310Z,56.71
2018-08-13T00:37:35.373Z,56.71
2018-08-13T00:38:34.983Z,56.71
2018-08-13T00:39:35.123Z,56.74
2018-08-13T00:40:35.140Z,56.73
2018-08-13T00:41:35.303Z,56.77
2018-08-13T00:42:35.208Z,56.73
2018-08-13T00:43:35.109Z,56.75
2018-08-13T00:44:35.212Z,56.71
2018-08-13T00:45:35.069Z,56.77
2018-08-13T00:46:35.100Z,56.76
2018-08-13T00:47:35.036Z,56.76
2018-08-13T00:48:35.167Z,56.77
2018-08-13T00:49:35.273Z,56.76
2018-08-13T00:50:35.027Z,56.73
2018-08-13T00:51:35.333Z,56.73
2018-08-13T00:52:35.197Z,56.79
2018-08-13T00:53:35.043Z,56.78
2018-08-13T00:54:35.271Z,56.74
2018-08-13T00:55:35.329Z,56.8
2018-08-13T00:56:34.989Z,56.8
2018-08-13T00:57:35.287Z,56.8
2018-08-13T00:58:35.280Z,56.78
2018-08-13T00:59:35.259Z,56.8
2018-08-13T01:00:35.120Z,56.82
2018-08-13T01:01:35.205Z,56.78
2018-08-13T01:02:35.032Z,56.8
2018-08-13T01:03:35.191Z,56.82
2018-08-13T01:04:35.211Z,56.8
2018-08-13T01:05:35.163Z,56.81
2018-08-13T01:06:35.123Z,56.78
2018-08-13T01:07:35.038Z,56.82
2018-08-13T01:08:35.206Z,56.8
2018-08-13T01:09:34.988Z,56.8
2018-08-13T01:10:35.178Z,56.81
2018-08-13T01:11:35.202Z,56.84
2018-08-13T01:12:35.126Z,56.82
2018-08-13T01:13:35.196Z,56.85
2018-08-13T01:14:35.178Z,56.81
2018-08-13T01:15:35.138Z,56.83
2018-08-13T01:16:35.396Z,56.85
2018-08-13T01:17:35.314Z,56.83
2018-08-13T01:18:35.258Z,56.85
2018-08-13T01:19:35.259Z,56.83
2018-08-13T01:20:35.208Z,56.84
2018-08-13T01:21:35.274Z,56.86
2018-08-13T01:22:35.451Z,56.87
2018-08-13T01:23:35.102Z,56.86
2018-08-13T01:24:35.374Z,56.85
2018-08-13T01:25:35.197Z,56.88
2018-08-13T01:26:35.393Z,56.81
2018-08-13T01:27:35.113Z,56.85
2018-08-13T01:28:35.398Z,56.84
2018-08-13T01:29:35.269Z,56.85
2018-08-13T01:30:35.112Z,56.88
2018-08-13T01:31:35.288Z,56.89
2018-08-13T01:32:35.208Z,56.9
2018-08-13T01:33:35.270Z,56.92
2018-08-13T01:34:35.240Z,56.89
2018-08-13T01:35:35.320Z,56.85
2018-08-13T01:36:35.092Z,56.84
2018-08-13T01:37:35.109Z,56.88
2018-08-13T01:38:35.210Z,56.91
2018-08-13T01:39:35.261Z,56.9
2018-08-13T01:40:35.222Z,56.88
2018-08-13T01:41:34.994Z,56.88
2018-08-13T01:42:35.097Z,56.84
2018-08-13T01:43:35.227Z,56.87
2018-08-13T01:44:35.145Z,56.86
2018-08-13T01:45:35.336Z,56.87
2018-08-13T01:46:35.256Z,56.88
2018-08-13T01:47:35.284Z,56.89
2018-08-13T01:48:35.133Z,56.92
2018-08-13T01:49:35.209Z,56.91
2018-08-13T01:50:34.957Z,56.91
2018-08-13T01:51:35.272Z,56.86
2018-08-13T01:52:35.106Z,56.85
2018-08-13T01:53:35.223Z,56.91
2018-08-13T01:54:35.304Z,56.89
2018-08-13T01:55:35.144Z,56.91
2018-08-13T01:56:35.392Z,56.89
2018-08-13T01:57:35.126Z,56.95
2018-08-13T01:58:35.365Z,56.92
2018-08-13T01:59:34.969Z,56.94
2018-08-13T02:00:35.101Z,56.91
2018-08-13T02:01:35.611Z,56.92
2018-08-13T02:02:35.060Z,56.9
2018-08-13T02:03:35.229Z,56.94
2018-08-13T02:04:35.333Z,56.92
2018-08-13T02:05:35.260Z,56.93
2018-08-13T02:06:35.005Z,56.95
2018-08-13T02:07:35.203Z,56.94
2018-08-13T02:08:34.974Z,56.95
2018-08-13T02:09:35.226Z,56.96
2018-08-13T02:10:35.335Z,56.94
2018-08-13T02:11:35.028Z,56.91
2018-08-13T02:12:35.260Z,56.94
2018-08-13T02:13:35.227Z,56.92
2018-08-13T02:14:35.227Z,56.94
2018-08-13T02:15:35.225Z,56.91
2018-08-13T02:16:35.320Z,56.89
2018-08-13T02:17:34.970Z,56.92
2018-08-13T02:18:35.097Z,56.9
2018-08-13T02:19:35.005Z,56.94
2018-08-13T02:20:35.247Z,56.9
2018-08-13T02:21:35.237Z,56.93
2018-08-13T02:22:35.117Z,56.93
2018-08-13T02:23:35.127Z,56.95
2018-08-13T02:24:35.134Z,56.94
2018-08-13T02:25:35.055Z,56.91
2018-08-13T02:26:35.105Z,56.9
2018-08-13T02:27:35.288Z,56.97
2018-08-13T02:28:35.448Z,56.97
2018-08-13T02:29:35.088Z,56.95
2018-08-13T02:30:35.438Z,56.93
2018-08-13T02:31:35.195Z,56.95
2018-08-13T02:32:35.062Z,56.9
2018-08-13T02:33:35.278Z,56.92
2018-08-13T02:34:35.124Z,56.93
2018-08-13T02:35:35.068Z,56.92
2018-08-13T02:36:35.308Z,56.93
2018-08-13T02:37:35.134Z,56.96
2018-08-13T02:38:35.575Z,56.94
2018-08-13T02:39:35.024Z,56.92
2018-08-13T02:40:35.212Z,56.96
2018-08-13T02:41:35.235Z,56.95
2018-08-13T02:42:35.268Z,56.95
2018-08-13T02:43:35.204Z,56.98
2018-08-13T02:44:35.172Z,56.92
2018-08-13T02:45:35.092Z,56.97
2018-08-13T02:46:35.142Z,56.97
2018-08-13T02:47:35.289Z,56.95
2018-08-13T02:48:35.176Z,56.93
2018-08-13T02:49:35.066Z,57
2018-08-13T02:50:35.150Z,56.95
2018-08-13T02:51:35.106Z,56.95
2018-08-13T02:52:35.040Z,56.95
2018-08-13T02:53:35.379Z,56.95
2018-08-13T02:54:35.153Z,56.96
2018-08-13T02:55:34.973Z,56.99
2018-08-13T02:56:35.116Z,56.96
2018-08-13T02:57:35.269Z,56.97
2018-08-13T02:58:35.213Z,57.02
2018-08-13T02:59:35.166Z,56.99
2018-08-13T03:00:35.289Z,56.98
2018-08-13T03:01:35.035Z,56.98
2018-08-13T03:02:34.995Z,56.94
2018-08-13T03:03:35.075Z,56.96
2018-08-13T03:04:35.450Z,56.97
2018-08-13T03:05:35.044Z,56.98
2018-08-13T03:06:35.121Z,56.96
2018-08-13T03:07:35.077Z,56.96
2018-08-13T03:08:35.166Z,56.97
2018-08-13T03:09:35.253Z,56.99
2018-08-13T03:10:34.976Z,56.99
2018-08-13T03:11:34.998Z,56.98
2018-08-13T03:12:35.111Z,56.98
2018-08-13T03:13:34.974Z,56.96
2018-08-13T03:14:35.136Z,56.98
2018-08-13T03:15:35.129Z,56.98
2018-08-13T03:16:35.051Z,57.01
2018-08-13T03:17:35.077Z,56.97
2018-08-13T03:18:35.097Z,56.98
2018-08-13T03:19:35.192Z,57
2018-08-13T03:20:35.271Z,57
2018-08-13T03:21:35.328Z,57
2018-08-13T03:22:35.083Z,56.97
2018-08-13T03:23:35.127Z,56.97
2018-08-13T03:24:35.196Z,57
2018-08-13T03:25:35.108Z,57.01
2018-08-13T03:26:35.142Z,57
2018-08-13T03:27:35.488Z,56.99
2018-08-13T03:28:35.354Z,56.97
2018-08-13T03:29:35.176Z,57
2018-08-13T03:30:35.307Z,57.01
2018-08-13T03:31:35.273Z,57.01
2018-08-13T03:32:35.344Z,57.01
2018-08-13T03:33:35.995Z,56.97
2018-08-13T03:34:35.060Z,56.97
2018-08-13T03:35:35.379Z,57
2018-08-13T03:36:35.427Z,57
2018-08-13T03:37:35.123Z,57
2018-08-13T03:38:35.068Z,57.04
2018-08-13T03:39:35.257Z,57.04
2018-08-13T03:40:35.297Z,57.04
2018-08-13T03:41:35.045Z,57.04
2018-08-13T03:42:35.318Z,57
2018-08-13T03:43:35.102Z,57.02
2018-08-13T03:44:35.105Z,57.01
2018-08-13T03:45:35.015Z,57.01
2018-08-13T03:46:35.308Z,57.03
2018-08-13T03:47:35.090Z,57.03
2018-08-13T03:48:35.155Z,57.04
2018-08-13T03:49:34.969Z,57.01
2018-08-13T03:50:35.512Z,57.03
2018-08-13T03:51:35.292Z,57.03
2018-08-13T03:52:35.244Z,57.01
2018-08-13T03:53:35.240Z,57
2018-08-13T03:54:35.135Z,56.96
2018-08-13T03:55:35.274Z,56.99
2018-08-13T03:56:35.074Z,57.01
2018-08-13T03:57:34.958Z,57
2018-08-13T03:58:35.236Z,57.04
2018-08-13T03:59:35.197Z,57.03
2018-08-13T04:00:34.941Z,57
2018-08-13T04:01:35.189Z,57.06
2018-08-13T04:02:35.224Z,57.03
2018-08-13T04:03:35.222Z,57.04
2018-08-13T04:04:35.159Z,57.07
2018-08-13T04:05:35.167Z,57.03
2018-08-13T04:06:35.232Z,57.06
2018-08-13T04:07:35.309Z,57.01
2018-08-13T04:08:35.133Z,57.04
2018-08-13T04:09:35.030Z,57.04
2018-08-13T04:10:35.156Z,57.05
2018-08-13T04:11:35.281Z,57.05
2018-08-13T04:12:35.180Z,57.05
2018-08-13T04:13:35.372Z,57.04
2018-08-13T04:14:34.994Z,57.05
2018-08-13T04:15:35.466Z,57.08
2018-08-13T04:16:35.302Z,57.09
2018-08-13T04:17:35.169Z,57.07
2018-08-13T04:18:35.209Z,57.07
2018-08-13T04:19:35.081Z,57.09
2018-08-13T04:20:35.230Z,57.07
2018-08-13T04:21:35.128Z,57.05
2018-08-13T04:22:35.133Z,57.09
2018-08-13T04:23:35.126Z,57.06
2018-08-13T04:24:35.178Z,57.09
2018-08-13T04:25:35.209Z,57.09
2018-08-13T04:26:35.056Z,57.08
2018-08-13T04:27:35.031Z,57.11
2018-08-13T04:28:35.013Z,57.11
2018-08-13T04:29:35.139Z,57.1
2018-08-13T04:30:35.031Z,57.11
2018-08-13T04:31:35.110Z,57.09
2018-08-13T04:32:35.439Z,57.11
2018-08-13T04:33:35.014Z,57.11
2018-08-13T04:34:35.187Z,57.15
2018-08-13T04:35:35.201Z,57.11
2018-08-13T04:36:35.134Z,57.09
2018-08-13T04:37:35.158Z,57.12
2018-08-13T04:38:35.385Z,57.12
2018-08-13T04:39:35.143Z,57.11
2018-08-13T04:40:34.945Z,57.15
2018-08-13T04:41:35.213Z,57.1
2018-08-13T04:42:35.099Z,57.11
2018-08-13T04:43:35.082Z,57.11
2018-08-13T04:44:35.179Z,57.15
2018-08-13T04:45:34.995Z,57.11
2018-08-13T04:46:35.098Z,57.11
2018-08-13T04:47:35.052Z,57.15
2018-08-13T04:48:35.193Z,57.19
2018-08-13T04:49:35.134Z,57.14
2018-08-13T04:50:35.110Z,57.17
2018-08-13T04:51:35.156Z,57.1
2018-08-13T04:52:35.117Z,57.16
2018-08-13T04:53:35.147Z,57.13
2018-08-13T04:54:35.011Z,57.1
2018-08-13T04:55:35.148Z,57.1
2018-08-13T04:56:35.016Z,57.13
2018-08-13T04:57:35.286Z,57.16
2018-08-13T04:58:35.213Z,57.15
2018-08-13T04:59:35.194Z,57.11
2018-08-13T05:00:35.221Z,57.11
2018-08-13T05:01:35.032Z,57.15
2018-08-13T05:02:35.152Z,57.14
2018-08-13T05:03:35.038Z,57.14
2018-08-13T05:04:35.075Z,57.13
2018-08-13T05:05:35.212Z,57.14
2018-08-13T05:06:34.950Z,57.14
2018-08-13T05:07:34.965Z,57.14
2018-08-13T05:08:35.213Z,57.12
2018-08-13T05:09:35.113Z,57.15
2018-08-13T05:10:35.177Z,57.15
2018-08-13T05:11:35.138Z,57.14
2018-08-13T05:12:35.080Z,57.14
2018-08-13T05:13:35.057Z,57.2
2018-08-13T05:14:35.018Z,57.13
2018-08-13T05:15:35.143Z,57.16
2018-08-13T05:16:35.305Z,57.17
2018-08-13T05:17:35.206Z,57.13
2018-08-13T05:18:35.093Z,57.17
2018-08-13T05:19:35.339Z,57.15
2018-08-13T05:20:35.249Z,57.15
2018-08-13T05:21:35.068Z,57.15
2018-08-13T05:22:35.270Z,57.16
2018-08-13T05:23:35.100Z,57.18
2018-08-13T05:24:35.117Z,57.16
2018-08-13T05:25:35.190Z,57.21
2018-08-13T05:26:35.303Z,57.17
2018-08-13T05:27:35.192Z,57.16
2018-08-13T05:28:35.130Z,57.18
2018-08-13T05:29:35.153Z,57.2
2018-08-13T05:30:35.048Z,57.21
2018-08-13T05:31:35.083Z,57.18
2018-08-13T05:32:35.052Z,57.2
2018-08-13T05:33:35.311Z,57.2
2018-08-13T05:34:34.997Z,57.18
2018-08-13T05:35:35.455Z,57.17
2018-08-13T05:36:35.123Z,57.23
2018-08-13T05:37:35.227Z,57.2
2018-08-13T05:38:35.112Z,57.21
2018-08-13T05:39:34.976Z,57.18
2018-08-13T05:40:35.271Z,57.21
2018-08-13T05:41:35.023Z,57.18
2018-08-13T05:42:35.235Z,57.22
2018-08-13T05:43:35.276Z,57.19
2018-08-13T05:44:34.986Z,57.21
2018-08-13T05:45:35.153Z,57.19
2018-08-13T05:46:35.337Z,57.2
2018-08-13T05:47:35.185Z,57.21
2018-08-13T05:48:35.039Z,57.2
2018-08-13T05:49:35.134Z,57.21
2018-08-13T05:50:34.946Z,57.24
2018-08-13T05:51:35.022Z,57.22
2018-08-13T05:52:35.188Z,57.21
2018-08-13T05:53:35.046Z,57.2
2018-08-13T05:54:35.111Z,57.21
2018-08-13T05:55:35.239Z,57.2
2018-08-13T05:56:35.072Z,57.24
2018-08-13T05:57:35.159Z,57.18
2018-08-13T05:58:34.956Z,57.26
2018-08-13T05:59:35.008Z,57.25
2018-08-13T06:00:35.095Z,57.23
2018-08-13T06:01:35.139Z,57.24
2018-08-13T06:02:35.142Z,57.25
2018-08-13T06:03:35.192Z,57.25
2018-08-13T06:04:35.379Z,57.24
2018-08-13T06:05:35.162Z,57.26
2018-08-13T06:06:35.148Z,57.26
2018-08-13T06:07:35.055Z,57.21
2018-08-13T06:08:35.194Z,57.24
2018-08-13T06:09:35.126Z,57.24
2018-08-13T06:10:35.101Z,57.21
2018-08-13T06:11:35.808Z,57.22
2018-08-13T06:12:35.082Z,57.21
2018-08-13T06:13:35.266Z,57.22
2018-08-13T06:14:34.986Z,57.18
2018-08-13T06:15:34.976Z,57.23
2018-08-13T06:16:34.993Z,57.26
2018-08-13T06:17:35.100Z,57.21
2018-08-13T06:18:35.075Z,57.2
2018-08-13T06:19:35.100Z,57.25
2018-08-13T06:20:35.003Z,57.21
2018-08-13T06:21:35.202Z,57.19
2018-08-13T06:22:34.965Z,57.25
2018-08-13T06:23:35.163Z,57.26
2018-08-13T06:24:35.181Z,57.24
2018-08-13T06:25:35.077Z,57.23
2018-08-13T06:26:34.987Z,57.23
2018-08-13T06:27:34.935Z,57.26
2018-08-13T06:28:35.163Z,57.2
2018-08-13T06:29:35.120Z,57.23
2018-08-13T06:30:35.196Z,57.23
2018-08-13T06:31:34.978Z,57.24
2018-08-13T06:32:35.054Z,57.25
2018-08-13T06:33:35.309Z,57.22
2018-08-13T06:34:35.027Z,57.2
2018-08-13T06:35:35.077Z,57.24
2018-08-13T06:36:35.318Z,57.25
2018-08-13T06:37:35.115Z,57.22
2018-08-13T06:38:35.176Z,57.23
2018-08-13T06:39:35.099Z,57.18
2018-08-13T06:40:35.018Z,57.25
2018-08-13T06:41:35.201Z,57.24
2018-08-13T06:42:35.210Z,57.26
2018-08-13T06:43:35.004Z,57.27
2018-08-13T06:44:35.115Z,57.27
2018-08-13T06:45:35.093Z,57.22
2018-08-13T06:46:35.257Z,57.24
2018-08-13T06:47:35.213Z,57.23
2018-08-13T06:48:35.152Z,57.24
2018-08-13T06:49:35.207Z,57.26
2018-08-13T06:50:35.221Z,57.22
2018-08-13T06:51:35.152Z,57.22
2018-08-13T06:52:35.304Z,57.25
2018-08-13T06:53:34.982Z,57.24
2018-08-13T06:54:35.098Z,57.26
2018-08-13T06:55:35.028Z,57.25
2018-08-13T06:56:35.217Z,57.27
2018-08-13T06:57:35.353Z,57.3
2018-08-13T06:58:35.060Z,57.29
2018-08-13T06:59:35.282Z,57.28
2018-08-13T07:00:35.016Z,57.29
2018-08-13T07:01:35.270Z,57.29
2018-08-13T07:02:34.930Z,57.27
2018-08-13T07:03:35.163Z,57.28
2018-08-13T07:04:35.047Z,57.26
2018-08-13T07:05:35.182Z,57.3
2018-08-13T07:06:35.055Z,57.28
2018-08-13T07:07:35.119Z,57.31
2018-08-13T07:08:34.999Z,57.32
2018-08-13T07:09:35.264Z,57.45
2018-08-13T07:10:35.072Z,57.51
2018-08-13T07:11:34.907Z,57.4
2018-08-13T07:12:34.992Z,57.53
2018-08-13T07:13:35.228Z,57.54
2018-08-13T07:14:35.268Z,57.64
2018-08-13T07:15:35.440Z,57.65
2018-08-13T07:16:34.987Z,57.62
2018-08-13T07:17:35.162Z,57.6
2018-08-13T07:18:35.133Z,57.6
2018-08-13T07:19:35.128Z,57.53
2018-08-13T07:20:34.908Z,57.64
2018-08-13T07:21:35.612Z,57.58
2018-08-13T07:22:35.132Z,57.49
2018-08-13T07:23:35.219Z,57.52
2018-08-13T07:24:35.292Z,57.47
2018-08-13T07:25:34.996Z,57.46
2018-08-13T07:26:35.175Z,57.56
2018-08-13T07:27:34.970Z,57.46
2018-08-13T07:28:35.229Z,57.51
2018-08-13T07:29:34.946Z,57.48
2018-08-13T07:30:35.137Z,57.58
2018-08-13T07:31:35.134Z,57.61
2018-08-13T07:32:35.167Z,57.65
2018-08-13T07:33:35.379Z,57.62
2018-08-13T07:34:35.339Z,57.57
2018-08-13T07:35:35.026Z,57.6
2018-08-13T07:36:35.034Z,57.62
2018-08-13T07:37:35.278Z,57.6
2018-08-13T07:38:35.007Z,57.62
2018-08-13T07:39:35.277Z,57.64
2018-08-13T07:40:34.977Z,57.59
2018-08-13T07:41:35.141Z,57.65
2018-08-13T07:42:35.198Z,57.58
2018-08-13T07:43:35.164Z,57.64
2018-08-13T07:44:35.057Z,57.63
2018-08-13T07:45:36.052Z,57.69
2018-08-13T07:46:35.924Z,57.83
2018-08-13T07:47:34.989Z,57.69
2018-08-13T07:48:35.084Z,57.71
2018-08-13T07:49:35.221Z,57.53
2018-08-13T07:50:35.070Z,57.58
2018-08-13T07:51:35.608Z,57.64
2018-08-13T07:52:35.150Z,57.67
2018-08-13T07:53:34.986Z,57.65
2018-08-13T07:54:35.199Z,57.7
2018-08-13T07:55:35.051Z,57.72
2018-08-13T07:56:35.009Z,57.76
2018-08-13T07:57:35.012Z,57.67
2018-08-13T07:58:35.170Z,57.67
2018-08-13T07:59:35.218Z,57.73
2018-08-13T08:00:34.989Z,57.77
2018-08-13T08:01:35.130Z,57.74
2018-08-13T08:02:34.976Z,57.74
2018-08-13T08:03:34.998Z,57.75
2018-08-13T08:04:35.011Z,57.75
2018-08-13T08:05:34.999Z,57.73
2018-08-13T08:06:35.048Z,57.73
2018-08-13T08:07:35.261Z,57.7
2018-08-13T08:08:35.200Z,57.67
2018-08-13T08:09:35.020Z,57.65
2018-08-13T08:10:35.233Z,57.7
2018-08-13T08:11:38.002Z,57.69
2018-08-13T08:12:35.217Z,57.66
2018-08-13T08:13:35.104Z,57.71
2018-08-13T08:14:35.395Z,57.66
2018-08-13T08:15:35.324Z,57.69
2018-08-13T08:16:35.029Z,57.64
2018-08-13T08:17:35.296Z,57.7
2018-08-13T08:18:35.292Z,57.69
2018-08-13T08:19:35.036Z,57.69
2018-08-13T08:20:35.253Z,57.62
2018-08-13T08:21:35.036Z,57.63
2018-08-13T08:22:35.230Z,57.65
2018-08-13T08:23:34.922Z,57.66
2018-08-13T08:24:35.047Z,57.61
2018-08-13T08:25:35.237Z,57.58
2018-08-13T08:26:35.085Z,57.64
2018-08-13T08:27:35.228Z,57.69
2018-08-13T08:28:34.980Z,57.63
2018-08-13T08:29:35.015Z,57.67
2018-08-13T08:30:35.289Z,57.67
2018-08-13T08:31:35.166Z,57.65
2018-08-13T08:32:35.007Z,57.58
2018-08-13T08:33:34.952Z,57.59
2018-08-13T08:34:35.328Z,57.64
2018-08-13T08:35:34.987Z,57.61
2018-08-13T08:36:35.072Z,57.67
2018-08-13T08:37:35.016Z,57.76
2018-08-13T08:38:35.218Z,57.68
2018-08-13T08:39:34.904Z,57.74
2018-08-13T08:40:36.095Z,57.8
2018-08-13T08:41:35.142Z,57.72
2018-08-13T08:42:35.109Z,57.73
2018-08-13T08:43:34.883Z,57.73
2018-08-13T08:44:35.272Z,57.74
2018-08-13T08:45:35.340Z,57.68
2018-08-13T08:46:35.017Z,57.67
2018-08-13T08:47:35.238Z,57.65
2018-08-13T08:48:35.040Z,57.68
2018-08-13T08:49:35.461Z,57.65
2018-08-13T08:50:34.936Z,57.71
2018-08-13T08:51:35.192Z,57.71
2018-08-13T08:52:35.079Z,57.67
2018-08-13T08:53:35.655Z,57.67
2018-08-13T08:54:35.247Z,57.69
2018-08-13T08:55:35.221Z,57.69
2018-08-13T08:56:35.182Z,57.67
2018-08-13T08:57:35.113Z,57.67
2018-08-13T08:58:35.170Z,57.65
2018-08-13T08:59:35.028Z,57.67
2018-08-13T09:00:35.206Z,57.69
2018-08-13T09:01:34.991Z,57.7
2018-08-13T09:02:35.120Z,57.62
2018-08-13T09:03:35.286Z,57.64
2018-08-13T09:04:35.039Z,57.65
2018-08-13T09:05:35.250Z,57.66
2018-08-13T09:06:35.222Z,57.64
2018-08-13T09:07:35.104Z,57.65
2018-08-13T09:08:34.988Z,57.68
2018-08-13T09:09:35.276Z,57.65
2018-08-13T09:10:35.005Z,57.68
2018-08-13T09:11:35.138Z,57.68
2018-08-13T09:12:35.104Z,57.64
2018-08-13T09:13:35.278Z,57.64
2018-08-13T09:14:35.214Z,57.67
2018-08-13T09:15:35.079Z,57.7
2018-08-13T09:16:35.088Z,57.63
2018-08-13T09:17:34.996Z,57.69
2018-08-13T09:18:34.944Z,57.65
2018-08-13T09:19:35.161Z,57.67
2018-08-13T09:20:35.126Z,57.67
2018-08-13T09:21:35.232Z,57.65
2018-08-13T09:22:35.148Z,57.67
2018-08-13T09:23:35.104Z,57.71
2018-08-13T09:24:35.133Z,57.63
2018-08-13T09:25:35.944Z,57.71
2018-08-13T09:26:34.982Z,57.69
2018-08-13T09:27:35.147Z,57.68
2018-08-13T09:28:35.048Z,57.68
2018-08-13T09:29:35.100Z,57.7
2018-08-13T09:30:34.921Z,57.71
2018-08-13T09:31:35.048Z,57.69
2018-08-13T09:32:34.904Z,57.66
2018-08-13T09:33:35.190Z,57.71
2018-08-13T09:34:35.124Z,57.69
2018-08-13T09:35:35.272Z,57.68
2018-08-13T09:36:35.318Z,57.7
2018-08-13T09:37:34.977Z,57.75
2018-08-13T09:38:35.156Z,57.75
2018-08-13T09:39:35.101Z,57.71
2018-08-13T09:40:35.030Z,57.72
2018-08-13T09:41:35.027Z,57.68
2018-08-13T09:42:35.131Z,57.72
2018-08-13T09:43:35.008Z,57.69
2018-08-13T09:44:35.109Z,57.74
2018-08-13T09:45:35.172Z,57.72
2018-08-13T09:46:34.975Z,57.7
2018-08-13T09:47:35.270Z,57.76
2018-08-13T09:48:35.241Z,57.74
2018-08-13T09:49:35.077Z,57.73
2018-08-13T09:50:35.190Z,57.73
2018-08-13T09:51:35.028Z,57.72
2018-08-13T09:52:34.853Z,57.72
2018-08-13T09:53:35.118Z,57.72
2018-08-13T09:54:35.030Z,57.73
2018-08-13T09:55:34.926Z,57.71
2018-08-13T09:56:35.017Z,57.68
2018-08-13T09:57:35.279Z,57.71
2018-08-13T09:58:35.040Z,57.72
2018-08-13T09:59:35.107Z,57.69
2018-08-13T10:00:35.263Z,57.7
2018-08-13T10:01:35.017Z,57.72
2018-08-13T10:02:35.017Z,57.74
2018-08-13T10:03:35.150Z,57.7
2018-08-13T10:04:35.037Z,57.7
2018-08-13T10:05:34.957Z,57.72
2018-08-13T10:06:34.983Z,57.67
2018-08-13T10:07:35.053Z,57.71
2018-08-13T10:08:35.188Z,57.73
2018-08-13T10:09:35.210Z,57.75
2018-08-13T10:10:35.197Z,57.71
2018-08-13T10:11:34.936Z,57.69
2018-08-13T10:12:35.033Z,57.71
2018-08-13T10:13:34.978Z,57.71
2018-08-13T10:14:35.118Z,57.73
2018-08-13T10:15:34.883Z,57.7
2018-08-13T10:16:35.393Z,57.72
2018-08-13T10:17:35.802Z,57.72
2018-08-13T10:18:35.914Z,57.72
2018-08-13T10:19:35.106Z,57.74
2018-08-13T10:20:35.114Z,57.71
2018-08-13T10:21:35.165Z,57.75
2018-08-13T10:22:36.821Z,57.73
2018-08-13T10:23:35.199Z,57.74
2018-08-13T10:24:34.956Z,57.76
2018-08-13T10:25:35.248Z,57.73
2018-08-13T10:26:35.023Z,57.74
2018-08-13T10:27:35.054Z,57.72
2018-08-13T10:28:35.199Z,57.75
2018-08-13T10:29:35.070Z,57.75
2018-08-13T10:30:34.929Z,57.76
2018-08-13T10:31:36.022Z,57.72
2018-08-13T10:32:35.094Z,57.74
2018-08-13T10:33:35.002Z,57.76
2018-08-13T10:34:35.375Z,57.74
2018-08-13T10:35:35.908Z,57.8
2018-08-13T10:36:35.831Z,57.76
2018-08-13T10:37:35.108Z,57.77
2018-08-13T10:38:35.289Z,57.76
2018-08-13T10:39:34.963Z,57.72
2018-08-13T10:40:34.995Z,57.73
2018-08-13T10:41:35.223Z,57.78
2018-08-13T10:42:34.932Z,57.76
2018-08-13T10:43:35.963Z,57.76
2018-08-13T10:44:35.307Z,57.72
2018-08-13T10:45:35.093Z,57.73
2018-08-13T10:46:35.183Z,57.78
2018-08-13T10:47:35.075Z,57.76
2018-08-13T10:48:35.046Z,57.78
2018-08-13T10:49:35.320Z,57.79
2018-08-13T10:50:35.185Z,57.77
2018-08-13T10:51:35.120Z,57.78
2018-08-13T10:52:35.115Z,57.72
2018-08-13T10:53:34.963Z,57.75
2018-08-13T10:54:35.099Z,57.76
2018-08-13T10:55:34.938Z,57.8
2018-08-13T10:56:35.070Z,57.78
2018-08-13T10:57:34.897Z,57.79
2018-08-13T10:58:35.090Z,57.8
2018-08-13T10:59:35.034Z,57.77
2018-08-13T11:00:34.909Z,57.77
2018-08-13T11:01:35.085Z,57.76
2018-08-13T11:02:35.120Z,57.81
2018-08-13T11:03:35.211Z,57.8
2018-08-13T11:04:35.108Z,57.78
2018-08-13T11:05:35.142Z,57.75
2018-08-13T11:06:34.976Z,57.76
2018-08-13T11:07:35.035Z,57.79
2018-08-13T11:08:34.961Z,57.81
2018-08-13T11:09:34.953Z,57.82
2018-08-13T11:10:35.192Z,57.79
2018-08-13T11:11:35.115Z,57.79
2018-08-13T11:12:35.005Z,57.8
2018-08-13T11:13:36.320Z,57.8
2018-08-13T11:14:34.993Z,57.79
2018-08-13T11:15:34.999Z,57.83
2018-08-13T11:16:34.989Z,57.81
2018-08-13T11:17:34.865Z,57.78
2018-08-13T11:18:34.918Z,57.82
2018-08-13T11:19:35.176Z,57.87
2018-08-13T11:20:35.013Z,57.83
2018-08-13T11:21:35.292Z,57.84
2018-08-13T11:22:35.132Z,57.79
2018-08-13T11:23:35.092Z,57.8
2018-08-13T11:24:34.963Z,57.82
2018-08-13T11:25:35.007Z,57.86
2018-08-13T11:26:35.252Z,57.85
2018-08-13T11:27:34.802Z,57.88
2018-08-13T11:28:35.900Z,57.83
2018-08-13T11:29:35.049Z,57.83
2018-08-13T11:30:35.054Z,57.84
2018-08-13T11:31:35.237Z,57.84
2018-08-13T11:32:35.135Z,57.82
2018-08-13T11:33:34.926Z,57.81
2018-08-13T11:34:35.238Z,57.85
2018-08-13T11:35:35.189Z,57.82
2018-08-13T11:36:35.085Z,57.84
2018-08-13T11:37:35.180Z,57.82
2018-08-13T11:38:35.026Z,57.81
2018-08-13T11:39:34.908Z,57.8
2018-08-13T11:40:35.385Z,57.82
2018-08-13T11:41:35.101Z,57.85
2018-08-13T11:42:35.025Z,57.81
2018-08-13T11:43:35.022Z,57.85
2018-08-13T11:44:35.016Z,57.85
2018-08-13T11:45:35.127Z,57.82
2018-08-13T11:46:35.030Z,57.82
2018-08-13T11:47:35.348Z,57.81
2018-08-13T11:48:35.044Z,57.81
2018-08-13T11:49:35.278Z,57.87
2018-08-13T11:50:34.985Z,57.82
2018-08-13T11:51:35.046Z,57.81
2018-08-13T11:52:35.733Z,57.82
2018-08-13T11:53:35.525Z,57.8
2018-08-13T11:54:35.000Z,57.81
2018-08-13T11:55:35.041Z,57.8
2018-08-13T11:56:35.093Z,57.82
2018-08-13T11:57:34.987Z,57.8
2018-08-13T11:58:35.044Z,57.82
2018-08-13T11:59:35.102Z,57.84
2018-08-13T12:00:35.052Z,57.82
2018-08-13T12:01:34.960Z,57.86
2018-08-13T12:02:35.002Z,57.83
2018-08-13T12:03:35.022Z,57.85
2018-08-13T12:04:35.066Z,57.81
2018-08-13T12:05:35.040Z,57.86
2018-08-13T12:06:34.844Z,57.83
2018-08-13T12:07:35.232Z,57.86
2018-08-13T12:08:35.078Z,57.84
2018-08-13T12:09:35.058Z,57.86
2018-08-13T12:10:35.054Z,57.84
2018-08-13T12:11:35.106Z,57.86
2018-08-13T12:12:34.866Z,57.81
2018-08-13T12:13:35.263Z,57.78
2018-08-13T12:14:35.236Z,57.82
2018-08-13T12:15:35.359Z,57.81
2018-08-13T12:16:35.010Z,57.84
2018-08-13T12:17:35.255Z,57.85
2018-08-13T12:18:34.922Z,57.85
2018-08-13T12:19:36.044Z,57.82
2018-08-13T12:20:35.098Z,57.86
2018-08-13T12:21:35.040Z,57.83
2018-08-13T12:22:35.056Z,57.84
2018-08-13T12:23:34.829Z,57.82
2018-08-13T12:24:35.154Z,57.82
2018-08-13T12:25:35.083Z,57.85
2018-08-13T12:26:34.991Z,57.88
2018-08-13T12:27:34.989Z,57.83
2018-08-13T12:28:35.219Z,57.87
2018-08-13T12:29:35.110Z,57.86
2018-08-13T12:30:34.959Z,57.86
2018-08-13T12:31:35.166Z,57.87
2018-08-13T12:32:35.118Z,57.88
2018-08-13T12:33:35.052Z,57.86
2018-08-13T12:34:34.968Z,57.85
2018-08-13T12:35:35.015Z,57.83
2018-08-13T12:36:35.054Z,57.88
2018-08-13T12:37:35.093Z,57.86
2018-08-13T12:38:34.900Z,57.86
2018-08-13T12:39:35.238Z,57.89
2018-08-13T12:40:35.058Z,57.85
2018-08-13T12:41:35.134Z,57.85
2018-08-13T12:42:35.179Z,57.85
2018-08-13T12:43:34.961Z,57.87
2018-08-13T12:44:35.239Z,57.82
2018-08-13T12:45:34.864Z,57.87
2018-08-13T12:46:34.914Z,57.87
2018-08-13T12:47:34.994Z,57.87
2018-08-13T12:48:35.086Z,57.88
2018-08-13T12:49:35.104Z,57.88
2018-08-13T12:50:34.972Z,57.86
2018-08-13T12:51:35.064Z,57.88
2018-08-13T12:52:35.208Z,57.91
2018-08-13T12:53:34.968Z,57.86
2018-08-13T12:54:34.900Z,57.89
2018-08-13T12:55:35.208Z,57.86
2018-08-13T12:56:35.273Z,57.88